createdAt,value
2023-04-15T00:00:33.579Z,115.64
2023-04-15T00:01:33.584Z,116.22
2023-04-15T00:02:33.748Z,117.16
2023-04-15T00:03:33.722Z,114.61
2023-04-15T00:04:33.712Z,115.20
2023-04-15T00:05:33.559Z,116.42
2023-04-15T00:06:33.539Z,114.80
2023-04-15T00:07:33.577Z,116.06
2023-04-15T00:08:33.558Z,114.29
2023-04-15T00:09:33.602Z,116.41
2023-04-15T00:10:33.510Z,114.52
2023-04-15T00:11:33.548Z,113.64
2023-04-15T00:12:33.550Z,114.51
2023-04-15T00:13:33.566Z,114.53
2023-04-15T00:14:33.625Z,115.54
2023-04-15T00:15:33.620Z,114.55
2023-04-15T00:16:33.648Z,114.27
2023-04-15T00:17:33.698Z,114.51
2023-04-15T00:18:33.700Z,114.30
2023-04-15T00:19:33.732Z,114.81
2023-04-15T00:20:33.725Z,112.71
2023-04-15T00:21:33.772Z,114.63
2023-04-15T00:22:33.772Z,113.84
2023-04-15T00:23:33.810Z,113.20
2023-04-15T00:24:33.871Z,111.77
2023-04-15T00:25:33.872Z,113.63
2023-04-15T00:26:33.895Z,113.11
2023-04-15T00:27:33.908Z,113.20
2023-04-15T00:28:33.907Z,114.47
2023-04-15T00:29:33.963Z,112.60
2023-04-15T00:30:33.983Z,113.75
2023-04-15T00:31:34.010Z,112.72
2023-04-15T00:32:34.068Z,111.73
2023-04-15T00:33:34.029Z,113.32
2023-04-15T00:34:34.065Z,111.59
2023-04-15T00:35:34.057Z,113.48
2023-04-15T00:36:34.109Z,111.86
2023-04-15T00:37:34.114Z,112.02
2023-04-15T00:38:34.148Z,113.25
2023-04-15T00:39:34.173Z,111.99
2023-04-15T00:40:34.180Z,112.30
2023-04-15T00:41:34.217Z,112.25
2023-04-15T00:42:34.207Z,111.11
2023-04-15T00:43:34.230Z,111.12
2023-04-15T00:44:34.299Z,111.21
2023-04-15T00:45:34.386Z,111.71
2023-04-15T00:46:34.312Z,112.41
2023-04-15T00:47:34.379Z,111.88
2023-04-15T00:48:34.362Z,110.25
2023-04-15T00:49:34.387Z,112.57
2023-04-15T00:50:34.381Z,112.59
2023-04-15T00:51:34.426Z,111.33
2023-04-15T00:52:34.458Z,111.59
2023-04-15T00:53:34.452Z,109.62
2023-04-15T00:54:34.503Z,109.95
2023-04-15T00:55:34.528Z,111.18
2023-04-15T00:56:34.553Z,109.79
2023-04-15T00:57:34.549Z,111.96
2023-04-15T00:58:34.616Z,110.76
2023-04-15T00:59:34.626Z,110.11
2023-04-15T01:00:34.675Z,110.68
2023-04-15T01:01:34.670Z,109.68
2023-04-15T01:02:34.775Z,111.47
2023-04-15T01:03:34.924Z,110.93
2023-04-15T01:04:34.792Z,110.04
2023-04-15T01:05:34.764Z,109.90
2023-04-15T01:06:34.752Z,109.36
2023-04-15T01:07:34.843Z,109.65
2023-04-15T01:08:34.822Z,109.14
2023-04-15T01:09:34.874Z,109.85
2023-04-15T01:10:34.903Z,109.58
2023-04-15T01:11:34.924Z,109.97
2023-04-15T01:12:34.926Z,108.60
2023-04-15T01:13:34.965Z,109.93
2023-04-15T01:14:34.986Z,107.03
2023-04-15T01:15:35.001Z,108.41
2023-04-15T01:16:35.040Z,108.75
2023-04-15T01:17:35.045Z,108.85
2023-04-15T01:18:35.055Z,107.42
2023-04-15T01:19:35.087Z,108.06
2023-04-15T01:20:35.078Z,109.86
2023-04-15T01:21:35.108Z,108.71
2023-04-15T01:22:35.141Z,109.28
2023-04-15T01:23:35.156Z,108.67
2023-04-15T01:24:35.190Z,107.41
2023-04-15T01:25:35.195Z,105.91
2023-04-15T01:26:35.219Z,108.71
2023-04-15T01:27:35.249Z,108.18
2023-04-15T01:28:35.239Z,108.15
2023-04-15T01:29:35.311Z,108.83
2023-04-15T01:30:35.333Z,107.05
2023-04-15T01:31:35.375Z,108.90
2023-04-15T01:32:35.400Z,109.63
2023-04-15T01:33:35.346Z,108.27
2023-04-15T01:34:35.940Z,108.55
2023-04-15T01:35:35.413Z,107.21
2023-04-15T01:36:35.420Z,108.24
2023-04-15T01:37:35.444Z,108.08
2023-04-15T01:38:35.516Z,105.93
2023-04-15T01:39:35.512Z,107.03
2023-04-15T01:40:35.543Z,107.47
2023-04-15T01:41:35.565Z,106.18
2023-04-15T01:42:35.600Z,108.70
2023-04-15T01:43:35.625Z,108.23
2023-04-15T01:44:35.641Z,105.81
2023-04-15T01:45:35.655Z,106.17
2023-04-15T01:46:35.707Z,107.72
2023-04-15T01:47:35.783Z,107.76
2023-04-15T01:48:35.730Z,107.62
2023-04-15T01:49:35.761Z,105.89
2023-04-15T01:50:35.794Z,106.57
2023-04-15T01:51:35.807Z,107.56
2023-04-15T01:52:35.812Z,105.99
2023-04-15T01:53:35.846Z,107.34
2023-04-15T01:54:35.882Z,106.37
2023-04-15T01:55:35.937Z,106.72
2023-04-15T01:56:35.916Z,106.22
2023-04-15T01:57:35.989Z,106.12
2023-04-15T01:58:35.999Z,104.30
2023-04-15T01:59:36.023Z,108.01
2023-04-15T02:00:36.051Z,105.15
2023-04-15T02:01:36.044Z,106.03
2023-04-15T02:02:36.173Z,104.85
2023-04-15T02:03:36.182Z,105.27
2023-04-15T02:04:36.116Z,105.49
2023-04-15T02:05:36.139Z,106.66
2023-04-15T02:06:36.182Z,105.63
2023-04-15T02:07:36.183Z,105.03
2023-04-15T02:08:36.204Z,105.53
2023-04-15T02:09:36.271Z,103.50
2023-04-15T02:10:36.301Z,106.19
2023-04-15T02:11:36.305Z,104.60
2023-04-15T02:12:36.331Z,105.76
2023-04-15T02:13:36.383Z,103.18
2023-04-15T02:14:36.361Z,104.74
2023-04-15T02:15:36.372Z,105.12
2023-04-15T02:16:36.448Z,105.17
2023-04-15T02:17:36.457Z,105.39
2023-04-15T02:18:36.451Z,104.13
2023-04-15T02:19:36.482Z,105.08
2023-04-15T02:20:36.519Z,105.25
2023-04-15T02:21:36.585Z,105.33
2023-04-15T02:22:36.578Z,103.85
2023-04-15T02:23:36.621Z,104.40
2023-04-15T02:24:36.654Z,104.32
2023-04-15T02:25:36.669Z,104.87
2023-04-15T02:26:36.680Z,103.91
2023-04-15T02:27:36.732Z,104.90
2023-04-15T02:28:36.753Z,104.16
2023-04-15T02:29:36.779Z,103.47
2023-04-15T02:30:36.828Z,104.01
2023-04-15T02:31:36.940Z,103.19
2023-04-15T02:32:36.888Z,103.78
2023-04-15T02:33:36.853Z,105.40
2023-04-15T02:34:36.901Z,103.49
2023-04-15T02:35:36.912Z,103.83
2023-04-15T02:36:36.934Z,102.61
2023-04-15T02:37:36.987Z,103.49
2023-04-15T02:38:37.005Z,103.64
2023-04-15T02:39:37.058Z,103.21
2023-04-15T02:40:37.068Z,101.91
2023-04-15T02:41:37.113Z,103.32
2023-04-15T02:42:37.099Z,101.69
2023-04-15T02:43:37.119Z,101.74
2023-04-15T02:44:37.195Z,103.53
2023-04-15T02:45:37.218Z,100.03
2023-04-15T02:46:37.218Z,103.00
2023-04-15T02:47:37.276Z,101.63
2023-04-15T02:48:37.274Z,103.89
2023-04-15T02:49:37.318Z,102.57
2023-04-15T02:50:37.342Z,102.90
2023-04-15T02:51:37.372Z,103.67
2023-04-15T02:52:37.439Z,101.66
2023-04-15T02:53:37.442Z,99.97
2023-04-15T02:54:37.501Z,101.64
2023-04-15T02:55:37.495Z,101.62
2023-04-15T02:56:37.503Z,102.53
2023-04-15T02:57:37.548Z,100.45
2023-04-15T02:58:37.580Z,101.19
2023-04-15T02:59:37.634Z,101.04
2023-04-15T03:00:37.656Z,100.20
2023-04-15T03:01:37.712Z,101.64
2023-04-15T03:02:37.777Z,100.27
2023-04-15T03:03:37.768Z,102.39
2023-04-15T03:04:37.717Z,101.59
2023-04-15T03:05:37.731Z,100.33
2023-04-15T03:06:37.774Z,101.46
2023-04-15T03:07:37.801Z,100.33
2023-04-15T03:08:37.851Z,101.05
2023-04-15T03:09:37.887Z,101.14
2023-04-15T03:10:37.910Z,99.70
2023-04-15T03:11:37.934Z,101.37
2023-04-15T03:12:37.962Z,100.50
2023-04-15T03:13:37.991Z,100.66
2023-04-15T03:14:38.013Z,99.95
2023-04-15T03:15:38.094Z,101.85
2023-04-15T03:16:38.078Z,99.95
2023-04-15T03:17:38.177Z,99.41
2023-04-15T03:18:38.114Z,98.65
2023-04-15T03:19:38.151Z,98.23
2023-04-15T03:20:38.231Z,101.76
2023-04-15T03:21:38.208Z,99.08
2023-04-15T03:22:38.237Z,99.83
2023-04-15T03:23:38.265Z,99.43
2023-04-15T03:24:38.304Z,101.54
2023-04-15T03:25:38.335Z,98.37
2023-04-15T03:26:38.351Z,100.27
2023-04-15T03:27:38.365Z,99.17
2023-04-15T03:28:38.393Z,99.48
2023-04-15T03:29:38.429Z,100.03
2023-04-15T03:30:38.435Z,99.63
2023-04-15T03:31:38.501Z,99.95
2023-04-15T03:32:38.627Z,99.22
2023-04-15T03:33:38.528Z,99.23
2023-04-15T03:34:38.564Z,98.76
2023-04-15T03:35:38.611Z,98.49
2023-04-15T03:36:38.624Z,98.34
2023-04-15T03:37:38.642Z,99.22
2023-04-15T03:38:38.667Z,98.12
2023-04-15T03:39:38.714Z,99.95
2023-04-15T03:40:38.717Z,98.44
2023-04-15T03:41:38.789Z,99.68
2023-04-15T03:42:38.799Z,98.25
2023-04-15T03:43:38.830Z,98.44
2023-04-15T03:44:38.893Z,97.26
2023-04-15T03:45:38.872Z,97.06
2023-04-15T03:46:38.971Z,98.37
2023-04-15T03:47:38.987Z,98.60
2023-04-15T03:48:38.995Z,97.26
2023-04-15T03:49:39.034Z,98.25
2023-04-15T03:50:39.044Z,97.83
2023-04-15T03:51:39.092Z,96.84
2023-04-15T03:52:39.125Z,94.00
2023-04-15T03:53:39.128Z,98.50
2023-04-15T03:54:39.161Z,98.62
2023-04-15T03:55:39.191Z,96.77
2023-04-15T03:56:39.192Z,97.26
2023-04-15T03:57:39.407Z,95.71
2023-04-15T03:58:39.282Z,97.17
2023-04-15T03:59:39.346Z,95.94
2023-04-15T04:00:39.344Z,98.26
2023-04-15T04:01:39.404Z,94.90
2023-04-15T04:02:39.477Z,96.80
2023-04-15T04:03:39.580Z,94.72
2023-04-15T04:04:39.571Z,98.37
2023-04-15T04:05:39.554Z,94.97
2023-04-15T04:06:39.640Z,97.93
2023-04-15T04:07:39.675Z,93.32
2023-04-15T04:08:39.761Z,96.22
2023-04-15T04:09:39.823Z,96.32
2023-04-15T04:10:39.880Z,96.32
2023-04-15T04:11:39.957Z,94.74
2023-04-15T04:12:40.038Z,95.76
2023-04-15T04:13:40.047Z,94.18
2023-04-15T04:14:40.105Z,94.90
2023-04-15T04:15:40.166Z,94.16
2023-04-15T04:16:40.184Z,96.30
2023-04-15T04:17:40.281Z,94.49
2023-04-15T04:18:40.269Z,94.75
2023-04-15T04:19:40.332Z,96.25
2023-04-15T04:20:40.384Z,95.10
2023-04-15T04:21:40.428Z,95.99
2023-04-15T04:22:40.533Z,95.91
2023-04-15T04:23:40.561Z,92.73
2023-04-15T04:24:40.615Z,95.60
2023-04-15T04:25:40.644Z,96.49
2023-04-15T04:26:40.712Z,95.33
2023-04-15T04:27:40.803Z,94.84
2023-04-15T04:28:40.847Z,96.05
2023-04-15T04:29:40.924Z,94.28
2023-04-15T04:30:40.971Z,94.08
2023-04-15T04:31:41.048Z,94.17
2023-04-15T04:32:41.101Z,94.62
2023-04-15T04:33:41.116Z,92.87
2023-04-15T04:34:41.189Z,93.89
2023-04-15T04:35:41.270Z,92.74
2023-04-15T04:36:41.343Z,93.51
2023-04-15T04:37:41.376Z,91.67
2023-04-15T04:38:41.436Z,92.84
2023-04-15T04:39:41.509Z,93.47
2023-04-15T04:40:41.553Z,94.43
2023-04-15T04:41:41.615Z,94.07
2023-04-15T04:42:41.689Z,92.96
2023-04-15T04:43:41.766Z,93.49
2023-04-15T04:44:41.791Z,92.75
2023-04-15T04:45:41.861Z,93.54
2023-04-15T04:46:41.910Z,93.06
2023-04-15T04:47:41.992Z,92.15
2023-04-15T04:48:42.023Z,92.54
2023-04-15T04:49:42.110Z,91.72
2023-04-15T04:50:42.095Z,92.44
2023-04-15T04:51:42.133Z,92.36
2023-04-15T04:52:42.160Z,93.46
2023-04-15T04:53:42.204Z,91.07
2023-04-15T04:54:42.247Z,92.25
2023-04-15T04:55:42.298Z,91.46
2023-04-15T04:56:42.359Z,92.04
2023-04-15T04:57:42.366Z,91.69
2023-04-15T04:58:42.401Z,91.98
2023-04-15T04:59:42.442Z,91.77
2023-04-15T05:00:42.485Z,91.04
2023-04-15T05:01:42.604Z,89.86
2023-04-15T05:02:42.598Z,90.66
2023-04-15T05:03:42.644Z,89.63
2023-04-15T05:04:42.634Z,89.51
2023-04-15T05:05:42.645Z,89.49
2023-04-15T05:06:42.679Z,89.70
2023-04-15T05:07:42.698Z,90.18
2023-04-15T05:08:42.763Z,88.92
2023-04-15T05:09:42.779Z,88.66
2023-04-15T05:10:42.812Z,89.46
2023-04-15T05:11:42.903Z,89.39
2023-04-15T05:12:42.861Z,88.82
2023-04-15T05:13:42.919Z,87.53
2023-04-15T05:14:42.949Z,88.52
2023-04-15T05:15:43.065Z,89.67
2023-04-15T05:16:43.050Z,87.76
2023-04-15T05:17:43.127Z,89.07
2023-04-15T05:18:43.112Z,88.50
2023-04-15T05:19:43.120Z,86.45
2023-04-15T05:20:43.161Z,88.83
2023-04-15T05:21:43.212Z,87.83
2023-04-15T05:22:43.217Z,85.70
2023-04-15T05:23:43.277Z,89.40
2023-04-15T05:24:43.321Z,85.17
2023-04-15T05:25:43.333Z,88.98
2023-04-15T05:26:43.337Z,87.05
2023-04-15T05:27:43.381Z,89.41
2023-04-15T05:28:43.431Z,87.98
2023-04-15T05:29:43.457Z,85.48
2023-04-15T05:30:43.508Z,87.04
2023-04-15T05:31:43.563Z,85.98
2023-04-15T05:32:43.628Z,86.60
2023-04-15T05:33:43.583Z,87.17
2023-04-15T05:34:43.648Z,87.21
2023-04-15T05:35:43.692Z,86.41
2023-04-15T05:36:43.689Z,86.99
2023-04-15T05:37:43.722Z,85.80
2023-04-15T05:38:43.723Z,86.88
2023-04-15T05:39:43.788Z,86.79
2023-04-15T05:40:43.845Z,88.15
2023-04-15T05:41:43.825Z,86.80
2023-04-15T05:42:43.915Z,86.53
2023-04-15T05:43:43.910Z,87.29
2023-04-15T05:44:43.970Z,86.33
2023-04-15T05:45:43.960Z,87.75
2023-04-15T05:46:44.069Z,87.27
2023-04-15T05:47:44.068Z,87.70
2023-04-15T05:48:44.092Z,86.80
2023-04-15T05:49:44.111Z,88.10
2023-04-15T05:50:44.140Z,85.70
2023-04-15T05:51:44.181Z,87.25
2023-04-15T05:52:44.208Z,86.64
2023-04-15T05:53:44.198Z,85.68
2023-04-15T05:54:44.241Z,86.19
2023-04-15T05:55:44.295Z,86.51
2023-04-15T05:56:44.326Z,85.63
2023-04-15T05:57:44.340Z,84.32
2023-04-15T05:58:44.375Z,85.56
2023-04-15T05:59:44.420Z,86.90
2023-04-15T06:00:44.479Z,85.58
2023-04-15T06:01:44.494Z,85.41
2023-04-15T06:02:44.628Z,85.69
2023-04-15T06:03:44.597Z,85.86
2023-04-15T06:04:44.660Z,84.86
2023-04-15T06:05:44.590Z,85.79
2023-04-15T06:06:44.604Z,85.37
2023-04-15T06:07:46.678Z,86.92
2023-04-15T06:08:44.638Z,87.22
2023-04-15T06:09:44.655Z,84.87
2023-04-15T06:10:44.609Z,84.99
2023-04-15T06:11:44.641Z,84.14
2023-04-15T06:12:44.580Z,85.88
2023-04-15T06:13:44.586Z,86.55
2023-04-15T06:14:44.585Z,85.52
2023-04-15T06:15:44.581Z,84.35
2023-04-15T06:16:44.631Z,84.71
2023-04-15T06:17:44.602Z,84.91
2023-04-15T06:18:44.580Z,84.09
2023-04-15T06:19:44.641Z,83.96
2023-04-15T06:20:44.554Z,85.24
2023-04-15T06:21:44.540Z,85.95
2023-04-15T06:22:44.524Z,85.41
2023-04-15T06:23:44.523Z,83.64
2023-04-15T06:24:44.548Z,86.29
2023-04-15T06:25:44.529Z,84.78
2023-04-15T06:26:44.512Z,83.59
2023-04-15T06:27:44.524Z,83.82
2023-04-15T06:28:44.522Z,84.80
2023-04-15T06:29:44.485Z,84.67
2023-04-15T06:30:44.508Z,83.31
2023-04-15T06:31:44.539Z,82.82
2023-04-15T06:32:44.476Z,84.54
2023-04-15T06:33:44.457Z,84.66
2023-04-15T06:34:44.470Z,84.12
2023-04-15T06:35:44.455Z,83.40
2023-04-15T06:36:44.468Z,83.03
2023-04-15T06:37:44.427Z,82.30
2023-04-15T06:38:44.433Z,84.38
2023-04-15T06:39:44.415Z,83.55
2023-04-15T06:40:44.409Z,83.53
2023-04-15T06:41:44.383Z,84.11
2023-04-15T06:42:44.384Z,82.76
2023-04-15T06:43:44.375Z,82.54
2023-04-15T06:44:44.397Z,84.77
2023-04-15T06:45:44.401Z,83.11
2023-04-15T06:46:44.432Z,82.61
2023-04-15T06:47:44.366Z,83.31
2023-04-15T06:48:44.388Z,82.86
2023-04-15T06:49:44.328Z,82.42
2023-04-15T06:50:44.315Z,80.57
2023-04-15T06:51:44.357Z,83.29
2023-04-15T06:52:44.306Z,83.48
2023-04-15T06:53:44.294Z,82.71
2023-04-15T06:54:44.328Z,81.29
2023-04-15T06:55:44.270Z,81.70
2023-04-15T06:56:44.285Z,83.25
2023-04-15T06:57:44.281Z,82.41
2023-04-15T06:58:44.290Z,82.15
2023-04-15T06:59:44.250Z,82.93
2023-04-15T07:00:44.282Z,82.97
2023-04-15T07:01:44.251Z,81.79
2023-04-15T07:02:44.352Z,81.01
2023-04-15T07:03:44.293Z,81.97
2023-04-15T07:04:44.338Z,80.52
2023-04-15T07:05:44.353Z,80.76
2023-04-15T07:06:44.388Z,80.88
2023-04-15T07:07:44.420Z,79.88
2023-04-15T07:08:44.424Z,80.15
2023-04-15T07:09:44.473Z,79.41
2023-04-15T07:10:44.465Z,81.57
2023-04-15T07:11:44.506Z,78.48
2023-04-15T07:12:44.540Z,80.07
2023-04-15T07:13:44.527Z,78.59
2023-04-15T07:14:44.628Z,78.01
2023-04-15T07:15:44.619Z,80.11
2023-04-15T07:16:44.667Z,79.56
2023-04-15T07:17:44.755Z,80.88
2023-04-15T07:18:44.688Z,78.54
2023-04-15T07:19:44.733Z,77.05
2023-04-15T07:20:44.784Z,80.40
2023-04-15T07:21:44.808Z,79.58
2023-04-15T07:22:44.820Z,78.29
2023-04-15T07:23:44.849Z,78.16
2023-04-15T07:24:44.885Z,77.90
2023-04-15T07:25:44.917Z,78.06
2023-04-15T07:26:44.932Z,79.88
2023-04-15T07:27:44.937Z,79.43
2023-04-15T07:28:44.965Z,79.01
2023-04-15T07:29:45.032Z,78.05
2023-04-15T07:30:45.093Z,78.59
2023-04-15T07:31:45.095Z,78.08
2023-04-15T07:32:45.129Z,79.58
2023-04-15T07:33:45.147Z,78.84
2023-04-15T07:34:45.151Z,77.44
2023-04-15T07:35:45.193Z,79.32
2023-04-15T07:36:45.192Z,77.62
2023-04-15T07:37:45.244Z,80.17
2023-04-15T07:38:45.273Z,79.82
2023-04-15T07:39:45.269Z,79.43
2023-04-15T07:40:45.324Z,80.10
2023-04-15T07:41:45.322Z,76.47
2023-04-15T07:42:45.378Z,77.88
2023-04-15T07:43:45.425Z,78.00
2023-04-15T07:44:45.452Z,79.03
2023-04-15T07:45:45.481Z,80.09
2023-04-15T07:46:45.484Z,79.70
2023-04-15T07:47:45.562Z,79.38
2023-04-15T07:48:45.534Z,78.53
2023-04-15T07:49:45.586Z,77.78
2023-04-15T07:50:45.583Z,79.10
2023-04-15T07:51:45.649Z,77.47
2023-04-15T07:52:45.685Z,78.64
2023-04-15T07:53:45.699Z,80.74
2023-04-15T07:54:45.736Z,79.60
2023-04-15T07:55:45.751Z,79.01
2023-04-15T07:56:45.773Z,81.09
2023-04-15T07:57:45.804Z,78.73
2023-04-15T07:58:45.826Z,78.38
2023-04-15T07:59:45.873Z,78.48
2023-04-15T08:00:45.899Z,79.08
2023-04-15T08:01:46.037Z,78.82
2023-04-15T08:02:46.106Z,77.70
2023-04-15T08:03:46.098Z,78.79
2023-04-15T08:04:46.263Z,79.80
2023-04-15T08:05:46.018Z,79.19
2023-04-15T08:06:46.027Z,78.40
2023-04-15T08:07:46.092Z,80.37
2023-04-15T08:08:46.082Z,81.21
2023-04-15T08:09:46.117Z,79.63
2023-04-15T08:10:46.152Z,78.55
2023-04-15T08:11:46.173Z,80.23
2023-04-15T08:12:46.235Z,76.19
2023-04-15T08:13:46.236Z,78.70
2023-04-15T08:14:46.290Z,80.37
2023-04-15T08:15:46.328Z,78.56
2023-04-15T08:16:46.330Z,80.61
2023-04-15T08:17:46.347Z,78.63
2023-04-15T08:18:46.378Z,78.42
2023-04-15T08:19:46.383Z,77.36
2023-04-15T08:20:46.412Z,78.64
2023-04-15T08:21:46.423Z,79.52
2023-04-15T08:22:46.484Z,79.04
2023-04-15T08:23:46.497Z,80.33
2023-04-15T08:24:46.502Z,78.73
2023-04-15T08:25:46.525Z,76.84
2023-04-15T08:26:46.544Z,76.35
2023-04-15T08:27:46.583Z,77.90
2023-04-15T08:28:46.583Z,79.55
2023-04-15T08:29:46.662Z,78.80
2023-04-15T08:30:46.659Z,78.90
2023-04-15T08:31:46.710Z,76.63
2023-04-15T08:32:46.704Z,78.79
2023-04-15T08:33:46.678Z,78.69
2023-04-15T08:34:47.311Z,76.71
2023-04-15T08:35:46.730Z,78.14
2023-04-15T08:36:46.716Z,75.80
2023-04-15T08:37:46.775Z,77.36
2023-04-15T08:38:46.768Z,74.30
2023-04-15T08:39:46.820Z,75.59
2023-04-15T08:40:46.846Z,74.26
2023-04-15T08:41:46.846Z,76.34
2023-04-15T08:42:46.853Z,77.89
2023-04-15T08:43:46.859Z,77.42
2023-04-15T08:44:46.864Z,74.03
2023-04-15T08:45:46.887Z,74.94
2023-04-15T08:46:46.955Z,77.97
2023-04-15T08:47:46.973Z,75.81
2023-04-15T08:48:46.981Z,75.92
2023-04-15T08:49:46.989Z,78.16
2023-04-15T08:50:46.979Z,75.67
2023-04-15T08:51:47.009Z,74.52
2023-04-15T08:52:47.022Z,73.47
2023-04-15T08:53:47.065Z,74.24
2023-04-15T08:54:47.071Z,73.98
2023-04-15T08:55:47.096Z,73.98
2023-04-15T08:56:47.111Z,73.11
2023-04-15T08:57:47.148Z,73.15
2023-04-15T08:58:47.172Z,74.36
2023-04-15T08:59:47.183Z,73.12
2023-04-15T09:00:47.224Z,75.61
2023-04-15T09:01:47.229Z,74.61
2023-04-15T09:02:47.308Z,74.21
2023-04-15T09:03:47.431Z,72.85
2023-04-15T09:04:47.266Z,71.65
2023-04-15T09:05:47.308Z,73.90
2023-04-15T09:06:47.320Z,75.06
2023-04-15T09:07:47.400Z,73.85
2023-04-15T09:08:47.354Z,75.07
2023-04-15T09:09:47.390Z,75.27
2023-04-15T09:10:47.382Z,71.41
2023-04-15T09:11:47.453Z,73.28
2023-04-15T09:12:47.555Z,69.24
2023-04-15T09:13:47.510Z,72.08
2023-04-15T09:14:47.514Z,73.99
2023-04-15T09:15:47.507Z,70.50
2023-04-15T09:16:49.278Z,70.39
2023-04-15T09:17:47.515Z,72.04
2023-04-15T09:18:47.486Z,73.54
2023-04-15T09:19:47.500Z,71.67
2023-04-15T09:20:47.540Z,72.92
2023-04-15T09:21:47.489Z,70.56
2023-04-15T09:22:47.463Z,70.10
2023-04-15T09:23:47.476Z,72.04
2023-04-15T09:24:47.449Z,70.62
2023-04-15T09:25:47.441Z,73.23
2023-04-15T09:26:47.453Z,68.46
2023-04-15T09:27:47.438Z,72.59
2023-04-15T09:28:47.432Z,69.04
2023-04-15T09:29:47.417Z,71.49
2023-04-15T09:30:48.659Z,73.48
2023-04-15T09:31:47.420Z,73.53
2023-04-15T09:32:47.463Z,71.94
2023-04-15T09:33:47.374Z,71.33
2023-04-15T09:34:47.382Z,68.36
2023-04-15T09:35:47.379Z,74.13
2023-04-15T09:36:49.143Z,70.86
2023-04-15T09:37:47.342Z,69.42
2023-04-15T09:38:47.351Z,70.89
2023-04-15T09:39:47.344Z,71.64
2023-04-15T09:40:47.346Z,68.26
2023-04-15T09:41:47.334Z,71.57
2023-04-15T09:42:48.719Z,71.05
2023-04-15T09:43:47.349Z,71.06
2023-04-15T09:44:47.327Z,71.35
2023-04-15T09:45:47.320Z,71.40
2023-04-15T09:46:47.300Z,71.21
2023-04-15T09:47:47.325Z,71.31
2023-04-15T09:48:47.287Z,69.82
2023-04-15T09:49:47.322Z,71.83
2023-04-15T09:50:47.288Z,70.50
2023-04-15T09:52:01.425Z,70.02
2023-04-15T09:52:48.288Z,70.26
2023-04-15T09:53:47.242Z,70.77
2023-04-15T09:54:47.243Z,70.16
2023-04-15T09:55:47.221Z,70.52
2023-04-15T09:56:47.224Z,71.50
2023-04-15T09:57:47.269Z,69.30
2023-04-15T09:58:47.222Z,68.72
2023-04-15T09:59:47.207Z,68.78
2023-04-15T10:00:47.184Z,69.70
2023-04-15T10:01:47.396Z,68.90
2023-04-15T10:02:47.348Z,70.98
2023-04-15T10:03:47.243Z,68.73
2023-04-15T10:04:47.154Z,69.19
2023-04-15T10:05:47.161Z,68.80
2023-04-15T10:06:47.173Z,69.00
2023-04-15T10:07:47.153Z,70.57
2023-04-15T10:08:47.106Z,67.70
2023-04-15T10:09:47.107Z,71.01
2023-04-15T10:10:47.110Z,69.07
2023-04-15T10:11:47.099Z,68.09
2023-04-15T10:12:47.115Z,68.26
2023-04-15T10:13:47.108Z,68.46
2023-04-15T10:14:47.087Z,67.14
2023-04-15T10:15:47.096Z,65.84
2023-04-15T10:16:47.061Z,68.69
2023-04-15T10:17:47.109Z,70.16
2023-04-15T10:18:47.094Z,66.21
2023-04-15T10:19:47.078Z,66.97
2023-04-15T10:20:47.080Z,65.30
2023-04-15T10:21:47.092Z,67.18
2023-04-15T10:22:47.095Z,65.30
2023-04-15T10:23:47.111Z,67.27
2023-04-15T10:24:47.121Z,67.13
2023-04-15T10:25:47.124Z,67.33
2023-04-15T10:26:47.090Z,65.28
2023-04-15T10:27:47.104Z,67.93
2023-04-15T10:28:47.179Z,66.76
2023-04-15T10:29:47.130Z,65.44
2023-04-15T10:30:47.136Z,66.71
2023-04-15T10:31:47.220Z,64.99
2023-04-15T10:32:47.229Z,68.42
2023-04-15T10:33:47.167Z,62.18
2023-04-15T10:34:47.147Z,65.81
2023-04-15T10:35:47.187Z,66.78
2023-04-15T10:36:47.155Z,65.23
2023-04-15T10:37:47.157Z,66.60
2023-04-15T10:38:47.231Z,66.13
2023-04-15T10:39:47.209Z,67.52
2023-04-15T10:40:47.211Z,64.53
2023-04-15T10:41:47.222Z,66.15
2023-04-15T10:42:47.215Z,64.72
2023-04-15T10:43:47.201Z,68.05
2023-04-15T10:44:47.190Z,67.25
2023-04-15T10:45:47.234Z,65.80
2023-04-15T10:46:47.270Z,66.19
2023-04-15T10:47:47.278Z,64.40
2023-04-15T10:48:47.247Z,65.05
2023-04-15T10:49:47.226Z,65.71
2023-04-15T10:50:47.239Z,64.28
2023-04-15T10:51:47.225Z,66.30
2023-04-15T10:52:47.238Z,63.64
2023-04-15T10:53:47.273Z,66.81
2023-04-15T10:54:47.245Z,63.07
2023-04-15T10:55:47.242Z,64.52
2023-04-15T10:56:47.298Z,65.85
2023-04-15T10:57:47.296Z,66.75
2023-04-15T10:58:47.313Z,64.34
2023-04-15T10:59:47.296Z,68.13
2023-04-15T11:00:47.274Z,63.83
2023-04-15T11:01:47.359Z,64.35
2023-04-15T11:02:47.475Z,63.77
2023-04-15T11:03:47.475Z,65.20
2023-04-15T11:04:47.423Z,65.86
2023-04-15T11:05:47.336Z,62.72
2023-04-15T11:06:47.331Z,65.09
2023-04-15T11:07:47.315Z,65.33
2023-04-15T11:08:47.374Z,64.53
2023-04-15T11:09:47.381Z,64.33
2023-04-15T11:10:47.369Z,65.47
2023-04-15T11:11:47.354Z,62.68
2023-04-15T11:12:47.387Z,66.51
2023-04-15T11:13:47.365Z,63.65
2023-04-15T11:14:47.348Z,63.75
2023-04-15T11:15:47.370Z,62.81
2023-04-15T11:16:47.451Z,64.75
2023-04-15T11:17:47.405Z,64.33
2023-04-15T11:18:47.418Z,63.12
2023-04-15T11:19:47.371Z,65.40
2023-04-15T11:20:47.394Z,63.56
2023-04-15T11:21:47.386Z,65.24
2023-04-15T11:22:47.374Z,65.08
2023-04-15T11:23:47.378Z,63.88
2023-04-15T11:24:47.411Z,61.03
2023-04-15T11:25:47.385Z,63.17
2023-04-15T11:26:47.416Z,64.30
2023-04-15T11:27:47.384Z,65.65
2023-04-15T11:28:47.408Z,63.34
2023-04-15T11:29:47.422Z,63.47
2023-04-15T11:30:47.408Z,61.88
2023-04-15T11:31:47.454Z,62.96
2023-04-15T11:32:47.485Z,66.43
2023-04-15T11:33:47.413Z,65.67
2023-04-15T11:34:47.440Z,64.23
2023-04-15T11:35:47.394Z,63.43
2023-04-15T11:36:47.453Z,64.75
2023-04-15T11:37:47.425Z,64.77
2023-04-15T11:38:47.516Z,64.39
2023-04-15T11:39:47.433Z,65.23
2023-04-15T11:40:47.501Z,64.01
2023-04-15T11:41:47.433Z,62.13
2023-04-15T11:42:49.915Z,64.07
2023-04-15T11:43:47.439Z,67.41
2023-04-15T11:44:47.418Z,65.02
2023-04-15T11:45:47.468Z,67.88
2023-04-15T11:46:47.395Z,64.01
2023-04-15T11:47:47.495Z,62.65
2023-04-15T11:48:47.506Z,66.29
2023-04-15T11:49:47.377Z,64.97
2023-04-15T11:50:47.383Z,65.89
2023-04-15T11:51:47.346Z,65.96
2023-04-15T11:52:47.351Z,66.48
2023-04-15T11:53:47.372Z,68.01
2023-04-15T11:54:47.346Z,64.68
2023-04-15T11:55:47.342Z,65.61
2023-04-15T11:56:47.357Z,67.44
2023-04-15T11:57:47.358Z,65.03
2023-04-15T11:58:47.319Z,65.49
2023-04-15T11:59:47.331Z,65.21
2023-04-15T12:00:47.312Z,65.26
2023-04-15T12:01:47.337Z,65.88
2023-04-15T12:02:47.356Z,64.04
2023-04-15T12:03:47.525Z,62.69
2023-04-15T12:04:47.357Z,67.07
2023-04-15T12:05:47.271Z,64.50
2023-04-15T12:06:47.282Z,63.31
2023-04-15T12:07:47.257Z,61.32
2023-04-15T12:08:47.259Z,63.51
2023-04-15T12:09:47.243Z,63.83
2023-04-15T12:10:47.233Z,64.26
2023-04-15T12:11:47.302Z,63.51
2023-04-15T12:12:47.251Z,65.29
2023-04-15T12:13:47.220Z,65.30
2023-04-15T12:14:47.201Z,65.14
2023-04-15T12:15:47.225Z,64.60
2023-04-15T12:16:49.022Z,63.97
2023-04-15T12:17:51.571Z,64.11
2023-04-15T12:18:48.219Z,64.34
2023-04-15T12:19:47.157Z,65.07
2023-04-15T12:20:47.170Z,65.65
2023-04-15T12:21:47.150Z,65.30
2023-04-15T12:22:47.160Z,65.92
2023-04-15T12:23:47.152Z,66.24
2023-04-15T12:24:47.134Z,67.31
2023-04-15T12:25:47.144Z,62.11
2023-04-15T12:26:47.131Z,67.18
2023-04-15T12:27:47.106Z,64.42
2023-04-15T12:28:47.125Z,63.34
2023-04-15T12:29:47.084Z,64.09
2023-04-15T12:30:47.083Z,66.49
2023-04-15T12:31:47.206Z,66.57
2023-04-15T12:32:47.915Z,64.78
2023-04-15T12:33:47.090Z,64.36
2023-04-15T12:34:47.084Z,65.28
2023-04-15T12:35:47.077Z,64.70
2023-04-15T12:36:47.041Z,65.36
2023-04-15T12:37:47.064Z,63.07
2023-04-15T12:38:47.031Z,63.73
2023-04-15T12:39:47.021Z,64.20
2023-04-15T12:40:47.025Z,65.39
2023-04-15T12:41:46.993Z,62.90
2023-04-15T12:42:47.000Z,63.88
2023-04-15T12:43:46.992Z,63.72
2023-04-15T12:44:47.053Z,66.03
2023-04-15T12:45:46.978Z,64.69
2023-04-15T12:46:47.027Z,63.42